Time;durP1;ratioP1;P1;durP2;ratioP2;P2;SDS_P1;SDS_P2;PMS_P1;PMS_P2;Temp;Humidity;BMP_temperature;BMP_pressure;BME280_temperature;BME280_humidity;BME280_pressure;Samples;Min_cycle;Max_cycle;Signal;HPM_P1;HPM_P2
2022/06/23 00:00:03;;;;;;;14.18;9.85;;;;;;;17.18;100.00;101408.88;5100419;28;20121;-82
2022/06/23 00:02:32;;;;;;;14.40;10.05;;;;;;;17.08;100.00;101404.38;5078493;28;20108;-83
2022/06/23 00:05:07;;;;;;;14.45;9.38;;;;;;;17.27;100.00;101398.69;5083419;28;20039;-85
2022/06/23 00:07:37;;;;;;;12.93;9.38;;;;;;;17.23;100.00;101394.91;5075969;28;20048;-85
2022/06/23 00:10:15;;;;;;;14.52;8.38;;;;;;;17.27;100.00;101395.91;5072066;28;20085;-83
2022/06/23 00:12:42;;;;;;;14.85;9.15;;;;;;;17.37;100.00;101397.63;5061395;28;20089;-85
2022/06/23 00:15:27;;;;;;;14.80;9.27;;;;;;;17.44;100.00;101400.75;5083633;28;20040;-84
2022/06/23 00:18:05;;;;;;;10.63;8.50;;;;;;;17.38;100.00;101393.72;5071156;28;20028;-84
2022/06/23 00:20:45;;;;;;;13.80;8.98;;;;;;;17.30;100.00;101400.03;5069429;28;20078;-85
2022/06/23 00:23:13;;;;;;;13.18;8.07;;;;;;;17.31;100.00;101398.88;5089383;28;20072;-84
2022/06/23 00:25:43;;;;;;;11.80;8.15;;;;;;;17.15;100.00;101392.91;5087789;28;20024;-83
2022/06/23 00:28:20;;;;;;;13.77;7.40;;;;;;;17.04;100.00;101397.03;5068009;28;20122;-84
2022/06/23 00:30:51;;;;;;;10.77;7.80;;;;;;;17.02;100.00;101388.19;5089378;28;20358;-85
2022/06/23 00:33:27;;;;;;;10.55;7.28;;;;;;;17.28;100.00;101391.19;5069577;28;20024;-85
2022/06/23 00:35:54;;;;;;;9.45;7.88;;;;;;;17.12;100.00;101381.59;5070211;28;20470;-84
2022/06/23 00:38:30;;;;;;;13.45;7.65;;;;;;;17.27;100.00;101382.06;5070629;28;20438;-83
2022/06/23 00:40:58;;;;;;;12.20;8.20;;;;;;;17.31;100.00;101376.69;5070350;28;20604;-84
2022/06/23 00:43:27;;;;;;;11.10;8.05;;;;;;;17.01;100.00;101378.25;5068826;28;20016;-86
2022/06/23 00:46:07;;;;;;;9.80;7.75;;;;;;;17.16;100.00;101377.88;5070330;28;20059;-84
2022/06/23 00:48:47;;;;;;;14.35;8.93;;;;;;;17.01;100.00;101376.31;5067045;28;20592;-87
2022/06/23 00:51:37;;;;;;;12.25;8.63;;;;;;;17.05;100.00;101374.56;5087719;28;20027;-84
2022/06/23 00:54:25;;;;;;;12.85;7.85;;;;;;;17.24;100.00;101370.78;5068695;28;20352;-85
2022/06/23 00:57:28;;;;;;;14.35;8.50;;;;;;;17.01;100.00;101372.72;5064879;28;20042;-86
2022/06/23 01:00:00;;;;;;;12.90;7.82;;;;;;;17.05;100.00;101377.34;5068493;28;20027;-86
2022/06/23 01:02:34;;;;;;;12.00;7.88;;;;;;;17.08;100.00;101370.31;5068573;28;20035;-86
2022/06/23 01:05:03;;;;;;;14.30;8.20;;;;;;;17.04;100.00;101377.66;5068028;28;20435;-85
2022/06/23 01:07:52;;;;;;;10.82;8.25;;;;;;;17.13;100.00;101369.41;5085400;28;20060;-85
2022/06/23 01:10:45;;;;;;;9.85;7.63;;;;;;;17.01;100.00;101367.19;5087682;28;20469;-85
2022/06/23 01:13:40;;;;;;;12.20;8.02;;;;;;;17.07;100.00;101365.94;5066490;28;20027;-84
2022/06/23 01:16:33;;;;;;;11.02;7.63;;;;;;;16.99;100.00;101359.19;5086116;28;20032;-84
2022/06/23 01:19:35;;;;;;;14.15;7.82;;;;;;;16.89;100.00;101360.25;5074421;28;20040;-85
2022/06/23 01:22:07;;;;;;;12.60;8.03;;;;;;;16.94;100.00;101355.69;5069445;28;20097;-86
2022/06/23 01:24:56;;;;;;;12.63;8.00;;;;;;;16.98;100.00;101367.81;5067039;28;20058;-86
2022/06/23 01:27:22;;;;;;;11.50;8.70;;;;;;;16.73;100.00;101358.94;5086622;28;20056;-84
2022/06/23 01:29:53;;;;;;;11.50;8.57;;;;;;;16.78;100.00;101364.34;5067256;28;20579;-85
2022/06/23 01:32:29;;;;;;;11.75;8.80;;;;;;;16.88;100.00;101361.38;5084882;28;20023;-84
2022/06/23 01:35:05;;;;;;;11.43;8.45;;;;;;;16.80;100.00;101367.63;5067152;28;20173;-85
2022/06/23 01:37:42;;;;;;;15.73;8.95;;;;;;;16.89;100.00;101365.78;5084633;28;20023;-83
2022/06/23 01:40:19;;;;;;;13.93;8.93;;;;;;;16.94;100.00;101364.00;5067886;28;20038;-85
2022/06/23 01:43:06;;;;;;;11.52;8.10;;;;;;;17.06;100.00;101367.88;5083072;28;20089;-86
2022/06/23 01:46:01;;;;;;;10.70;7.85;;;;;;;16.92;100.00;101367.09;5085082;28;20358;-84
2022/06/23 01:48:51;;;;;;;11.38;7.90;;;;;;;16.92;100.00;101369.06;5062800;28;20035;-84
2022/06/23 01:51:20;;;;;;;11.02;8.68;;;;;;;16.93;100.00;101370.69;5085897;28;20055;-85
2022/06/23 01:53:45;;;;;;;13.20;8.88;;;;;;;16.86;100.00;101374.72;5080317;28;20040;-84
2022/06/23 01:56:17;;;;;;;9.90;8.40;;;;;;;16.98;100.00;101365.84;5050700;28;20057;-84
2022/06/23 01:59:05;;;;;;;13.37;7.97;;;;;;;16.86;100.00;101366.41;5063095;28;20058;-84
2022/06/23 02:02:05;;;;;;;14.48;9.10;;;;;;;16.83;100.00;101371.72;5085528;28;20975;-84
2022/06/23 02:04:44;;;;;;;11.57;8.15;;;;;;;16.82;100.00;101361.75;5055933;28;20036;-83
2022/06/23 02:07:39;;;;;;;11.77;8.63;;;;;;;16.74;100.00;101357.78;5066901;28;21407;-83
2022/06/23 02:10:25;;;;;;;11.25;9.23;;;;;;;16.61;100.00;101366.94;5075154;28;20135;-84
2022/06/23 02:13:14;;;;;;;10.85;8.75;;;;;;;16.61;100.00;101370.53;5081157;28;20036;-83
2022/06/23 02:16:17;;;;;;;12.32;8.05;;;;;;;16.66;100.00;101364.88;5065225;28;20040;-82
2022/06/23 02:18:55;;;;;;;10.80;8.50;;;;;;;16.50;100.00;101352.50;5082143;28;20484;-83
2022/06/23 02:21:43;;;;;;;12.77;9.07;;;;;;;16.33;100.00;101347.59;5085402;28;20386;-81
2022/06/23 02:24:37;;;;;;;14.57;8.13;;;;;;;16.39;100.00;101353.84;5082427;28;20391;-84
2022/06/23 02:27:03;;;;;;;13.18;9.80;;;;;;;16.36;100.00;101363.59;5066445;28;20030;-83
2022/06/23 02:29:28;;;;;;;14.45;9.63;;;;;;;16.36;100.00;101358.06;5064850;28;20032;-83
2022/06/23 02:32:12;;;;;;;13.73;9.43;;;;;;;16.41;100.00;101346.88;5065541;28;20364;-83
2022/06/23 02:35:00;;;;;;;13.70;9.73;;;;;;;16.49;100.00;101351.69;5065439;28;20042;-82
2022/06/23 02:37:51;;;;;;;13.75;9.27;;;;;;;16.47;100.00;101348.41;5089774;28;20035;-83
2022/06/23 02:40:40;;;;;;;10.35;9.23;;;;;;;16.47;100.00;101351.16;5071414;28;20042;-84
2022/06/23 02:43:10;;;;;;;12.43;9.55;;;;;;;16.49;100.00;101354.44;5088151;28;20050;-83
2022/06/23 02:46:03;;;;;;;11.98;9.05;;;;;;;16.51;100.00;101359.66;5068628;28;20075;-82
2022/06/23 02:48:42;;;;;;;;;;;;;;;16.29;100.00;101344.63;5086679;28;20126;-83
2022/06/23 02:51:39;;;;;;;11.68;9.38;;;;;;;16.08;100.00;101347.00;5089779;28;19919;-84
2022/06/23 02:54:14;;;;;;;12.07;9.52;;;;;;;16.37;100.00;101336.75;5014876;28;20070;-82
2022/06/23 02:56:46;;;;;;;12.88;9.25;;;;;;;16.46;100.00;101343.19;5070692;28;20028;-82
2022/06/23 02:59:27;;;;;;;11.63;9.18;;;;;;;16.27;100.00;101346.09;5067013;28;20028;-83
2022/06/23 03:02:18;;;;;;;17.70;9.98;;;;;;;16.04;100.00;101328.56;5087017;28;20024;-84
2022/06/23 03:04:55;;;;;;;13.55;9.43;;;;;;;16.02;100.00;101334.41;5065904;28;20012;-81
2022/06/23 03:07:54;;;;;;;14.05;9.73;;;;;;;16.16;100.00;101329.69;5069499;28;20056;-82
2022/06/23 03:10:43;;;;;;;13.60;9.93;;;;;;;16.11;100.00;101327.03;5089535;28;20020;-84
2022/06/23 03:13:34;;;;;;;12.57;9.45;;;;;;;16.27;100.00;101323.94;5086951;28;20031;-84
2022/06/23 03:16:17;;;;;;;12.98;10.15;;;;;;;16.06;100.00;101316.06;5071191;28;20419;-83
2022/06/23 03:18:57;;;;;;;14.68;10.93;;;;;;;16.26;100.00;101311.25;5086388;28;20020;-83
2022/06/23 03:21:29;;;;;;;11.27;9.77;;;;;;;16.24;100.00;101319.03;5071466;28;20035;-83
2022/06/23 03:24:33;;;;;;;11.85;9.95;;;;;;;16.08;100.00;101316.56;5086474;28;20020;-83
2022/06/23 03:27:04;;;;;;;10.93;9.65;;;;;;;16.31;100.00;101316.66;5035707;28;20154;-83
2022/06/23 03:29:42;;;;;;;13.07;10.38;;;;;;;16.20;100.00;101316.06;5085191;28;20031;-82
2022/06/23 03:32:18;;;;;;;12.90;9.75;;;;;;;16.39;100.00;101321.47;5089341;28;20032;-82
2022/06/23 03:34:48;;;;;;;13.57;9.57;;;;;;;16.22;100.00;101315.75;5086170;28;20165;-83
2022/06/23 03:37:22;;;;;;;13.13;10.05;;;;;;;16.34;100.00;101311.31;5069714;28;20054;-83
2022/06/23 03:42:51;;;;;;;13.02;9.57;;;;;;;16.37;100.00;101311.84;5083531;28;20626;-83
2022/06/23 03:45:25;;;;;;;13.75;10.15;;;;;;;16.43;100.00;101308.66;5068907;28;20531;-82
2022/06/23 03:48:07;;;;;;;11.98;9.88;;;;;;;16.22;100.00;101316.56;5085208;28;20023;-82
2022/06/23 03:50:54;;;;;;;14.98;9.52;;;;;;;16.23;100.00;101303.56;5071061;28;20027;-82
2022/06/23 03:53:36;;;;;;;12.82;10.05;;;;;;;16.17;100.00;101300.09;5069927;28;20044;-83
2022/06/23 03:56:07;;;;;;;13.52;10.00;;;;;;;16.17;100.00;101306.44;5087983;28;20032;-82
2022/06/23 03:58:48;;;;;;;15.43;10.45;;;;;;;16.33;100.00;101300.56;5086506;28;20142;-83
2022/06/23 04:01:18;;;;;;;11.18;9.95;;;;;;;16.14;100.00;101295.97;5071210;28;20024;-82
2022/06/23 04:03:57;;;;;;;15.38;9.73;;;;;;;16.27;100.00;101288.00;5087834;28;20027;-82
2022/06/23 04:06:48;;;;;;;13.48;10.02;;;;;;;16.16;100.00;101298.44;5071125;28;20020;-82
2022/06/23 04:09:19;;;;;;;13.73;9.98;;;;;;;16.30;100.00;101290.13;5068934;28;20103;-83
2022/06/23 04:12:00;;;;;;;13.20;10.57;;;;;;;16.22;100.00;101288.09;5069204;28;20474;-83
2022/06/23 04:14:44;;;;;;;14.48;10.30;;;;;;;16.31;100.00;101283.47;5082130;28;20050;-83
2022/06/23 04:17:38;;;;;;;15.43;9.73;;;;;;;16.41;100.00;101279.66;5066755;28;20030;-82
2022/06/23 04:20:40;;;;;;;14.35;9.60;;;;;;;16.47;100.00;101284.75;5068153;28;20115;-83
2022/06/23 04:23:15;;;;;;;13.30;9.85;;;;;;;16.47;100.00;101281.19;5052636;28;20118;-82
2022/06/23 04:25:47;;;;;;;12.40;9.68;;;;;;;16.57;100.00;101271.81;5068602;28;20039;-84
2022/06/23 04:28:34;;;;;;;11.82;10.25;;;;;;;16.36;100.00;101272.28;5063780;28;20016;-83
2022/06/23 04:31:03;;;;;;;13.52;9.80;;;;;;;16.35;100.00;101268.69;5066569;28;20024;-82
2022/06/23 04:33:29;;;;;;;13.32;9.82;;;;;;;16.54;100.00;101265.78;5085030;28;20032;-82
2022/06/23 04:35:58;;;;;;;12.38;10.07;;;;;;;16.54;100.00;101265.78;5049784;28;20447;-82
2022/06/23 04:38:46;;;;;;;13.07;9.85;;;;;;;16.56;100.00;101262.72;5064621;28;20443;-84
2022/06/23 04:41:24;;;;;;;10.93;8.77;;;;;;;16.84;100.00;101268.94;5067597;28;20478;-85
2022/06/23 04:43:54;;;;;;;13.18;9.07;;;;;;;16.84;100.00;101266.19;5079269;28;20024;-83
2022/06/23 04:46:32;;;;;;;13.55;9.00;;;;;;;16.75;100.00;101272.78;5065944;28;20012;-83
2022/06/23 04:49:03;;;;;;;12.85;9.20;;;;;;;16.66;100.00;101270.75;5080373;28;20169;-81
2022/06/23 04:51:39;;;;;;;11.38;8.65;;;;;;;16.66;100.00;101267.16;5065253;28;20077;-82
2022/06/23 04:54:10;;;;;;;12.20;10.00;;;;;;;16.89;100.00;101266.09;5061867;28;20097;-82
2022/06/23 04:56:42;;;;;;;14.52;10.57;;;;;;;16.80;100.00;101259.63;5084247;28;20039;-82
2022/06/23 04:59:26;;;;;;;13.93;9.40;;;;;;;17.13;100.00;101262.16;5059853;28;20362;-81
2022/06/23 05:01:54;;;;;;;13.07;9.52;;;;;;;17.01;100.00;101264.69;5067090;28;20131;-84
2022/06/23 05:04:29;;;;;;;11.38;9.55;;;;;;;17.10;100.00;101260.03;5084963;28;20024;-83
2022/06/23 05:07:00;;;;;;;11.82;9.38;;;;;;;17.08;100.00;101259.53;5085224;28;20035;-82
2022/06/23 05:09:35;;;;;;;11.60;9.13;;;;;;;17.17;100.00;101256.81;5087428;28;20050;-83
2022/06/23 05:12:18;;;;;;;12.25;9.18;;;;;;;17.29;100.00;101259.81;5085564;28;20116;-83
2022/06/23 05:15:10;;;;;;;11.98;9.93;;;;;;;17.44;100.00;101264.13;5065500;28;20118;-83
2022/06/23 05:17:42;;;;;;;13.90;9.65;;;;;;;17.48;100.00;101261.53;5065588;28;20465;-81
2022/06/23 05:20:16;;;;;;;13.00;8.65;;;;;;;17.56;100.00;101266.28;5066260;28;20032;-84
2022/06/23 05:22:50;;;;;;;11.38;9.85;;;;;;;17.48;100.00;101270.69;5065780;28;20324;-82
2022/06/23 05:25:19;;;;;;;11.50;9.07;;;;;;;17.71;100.00;101273.38;5067262;28;20167;-82
2022/06/23 05:27:49;;;;;;;12.18;9.50;;;;;;;17.83;100.00;101271.63;5062363;28;20262;-84
2022/06/23 05:30:25;;;;;;;12.10;9.40;;;;;;;17.89;100.00;101268.72;5066340;28;20094;-84
2022/06/23 05:32:54;;;;;;;11.30;9.43;;;;;;;17.83;100.00;101276.38;5065760;28;20345;-85
2022/06/23 05:35:33;;;;;;;16.08;9.00;;;;;;;18.10;100.00;101277.28;5086190;28;20069;-85
2022/06/23 05:38:01;;;;;;;11.60;9.00;;;;;;;17.99;100.00;101271.25;5065610;28;20482;-83
2022/06/23 05:40:33;;;;;;;14.45;9.30;;;;;;;17.90;100.00;101267.59;5068104;28;20114;-83
2022/06/23 05:43:01;;;;;;;13.63;9.32;;;;;;;18.15;100.00;101268.81;5080034;28;20364;-84
2022/06/23 05:45:40;;;;;;;10.25;8.55;;;;;;;18.06;100.00;101257.69;5068347;28;20024;-84
2022/06/23 05:48:11;;;;;;;12.07;8.65;;;;;;;18.09;100.00;101261.78;5083410;28;20039;-84
2022/06/23 05:50:52;;;;;;;11.27;8.85;;;;;;;18.15;100.00;101260.47;5085806;28;20020;-82
2022/06/23 05:53:33;;;;;;;13.38;9.73;;;;;;;17.93;100.00;101267.78;5066481;28;20040;-83
2022/06/23 05:56:11;;;;;;;12.23;9.20;;;;;;;18.11;100.00;101268.63;5067860;28;20028;-83
2022/06/23 05:58:48;;;;;;;10.82;9.40;;;;;;;18.07;100.00;101259.34;5063124;28;20089;-84
2022/06/23 06:01:24;;;;;;;11.02;8.77;;;;;;;18.31;100.00;101263.63;5084476;28;20078;-82
2022/06/23 06:04:00;;;;;;;12.25;9.68;;;;;;;18.46;100.00;101257.59;5066702;28;20019;-84
2022/06/23 06:06:26;;;;;;;10.80;9.00;;;;;;;18.68;100.00;101267.72;5067613;28;20052;-85
2022/06/23 06:11:46;;;;;;;11.95;10.05;;;;;;;18.42;100.00;101270.50;5089856;28;20119;-79
2022/06/23 06:14:15;;;;;;;14.27;9.18;;;;;;;18.64;100.00;101261.19;5065363;28;20035;-86
2022/06/23 06:16:41;;;;;;;12.95;9.63;;;;;;;18.67;100.00;101254.97;5072079;28;20019;-82
2022/06/23 06:19:13;;;;;;;11.45;9.27;;;;;;;18.67;100.00;101254.97;5052397;28;20028;-79
2022/06/23 06:21:39;;;;;;;10.65;9.55;;;;;;;18.66;100.00;101247.81;5071063;28;20390;-83
2022/06/23 06:24:17;;;;;;;13.15;9.82;;;;;;;18.85;100.00;101250.25;5067660;28;20031;-84
2022/06/23 06:26:46;;;;;;;12.65;9.30;;;;;;;19.01;100.00;101246.97;5071776;28;20023;-81
2022/06/23 06:29:16;;;;;;;11.50;9.07;;;;;;;19.02;100.00;101249.44;5085734;28;20027;-82
2022/06/23 06:31:51;;;;;;;15.50;9.38;;;;;;;19.03;100.00;101245.50;5077646;28;20127;-82
2022/06/23 06:34:19;;;;;;;12.40;9.73;;;;;;;18.93;100.00;101245.84;5101090;28;20309;-83
2022/06/23 06:36:46;;;;;;;13.25;9.50;;;;;;;19.05;100.00;101236.81;5100034;28;20032;-82
2022/06/23 06:39:23;;;;;;;13.00;9.85;;;;;;;19.34;100.00;101235.28;5084800;28;20031;-83
2022/06/23 06:42:00;;;;;;;14.77;9.10;;;;;;;19.50;100.00;101239.16;5095443;28;20043;-84
2022/06/23 06:44:26;;;;;;;11.68;9.13;;;;;;;19.54;100.00;101242.88;5070933;28;20106;-83
2022/06/23 06:46:57;;;;;;;11.65;8.35;;;;;;;19.76;100.00;101244.63;5073117;28;20103;-82
2022/06/23 06:49:25;;;;;;;11.20;9.90;;;;;;;19.64;100.00;101241.69;5054849;28;20070;-83
2022/06/23 06:51:55;;;;;;;10.80;8.95;;;;;;;19.98;100.00;101242.69;5072932;28;20478;-84
2022/06/23 06:54:28;;;;;;;12.60;9.52;;;;;;;19.53;100.00;101232.94;5050469;28;20080;-81
2022/06/23 06:56:58;;;;;;;8.95;7.78;;;;;;;20.11;100.00;101230.50;5050189;28;20372;-84
2022/06/23 06:59:44;;;;;;;12.10;9.00;;;;;;;20.02;100.00;101219.44;5044048;28;20029;-83
2022/06/23 07:02:24;;;;;;;11.60;7.80;;;;;;;20.30;100.00;101212.50;5064386;28;20094;-80
2022/06/23 07:05:04;;;;;;;9.13;8.23;;;;;;;20.04;100.00;101205.19;5050712;28;20028;-83
2022/06/23 07:07:40;;;;;;;12.73;8.73;;;;;;;20.60;100.00;101212.44;5062671;28;20094;-82
2022/06/23 07:10:16;;;;;;;16.50;9.60;;;;;;;20.71;100.00;101217.28;5046117;28;20025;-85
2022/06/23 07:13:01;;;;;;;10.82;8.30;;;;;;;21.01;100.00;101219.13;5046084;28;20847;-82
2022/06/23 07:15:34;;;;;;;10.93;8.70;;;;;;;20.76;100.00;101224.63;5048061;28;20049;-87
2022/06/23 07:18:08;;;;;;;;;;;;;;;21.03;100.00;101225.16;5045675;28;20025;-84
2022/06/23 07:21:00;;;;;;;10.18;7.25;;;;;;;21.29;100.00;101225.69;5047882;28;19917;-80
2022/06/23 07:23:43;;;;;;;9.13;7.78;;;;;;;21.46;100.00;101218.25;5045927;28;20131;-85
2022/06/23 07:26:30;;;;;;;13.15;9.00;;;;;;;21.43;100.00;101214.19;5044999;28;20067;-85
2022/06/23 07:29:07;;;;;;;10.43;8.10;;;;;;;21.63;100.00;101222.84;5040640;28;20531;-85
2022/06/23 07:32:05;;;;;;;10.43;7.93;;;;;;;21.85;100.00;101227.94;5044803;28;20021;-83
2022/06/23 07:34:36;;;;;;;11.77;7.55;;;;;;;22.11;100.00;101220.34;5014809;28;20106;-85
2022/06/23 07:37:15;;;;;;;11.07;7.40;;;;;;;22.43;100.00;101220.53;5044864;28;20470;-84
2022/06/23 07:39:41;;;;;;;14.07;9.25;;;;;;;22.25;100.00;101225.56;5044229;28;20450;-80
2022/06/23 07:42:38;;;;;;;12.15;8.82;;;;;;;22.28;100.00;101230.44;5044192;28;20082;-81
2022/06/23 07:45:19;;;;;;;14.10;8.95;;;;;;;22.52;100.00;101229.59;5044993;28;20077;-82
2022/06/23 07:47:44;;;;;;;10.32;7.93;;;;;;;22.78;100.00;101234.72;5044413;28;20152;-80
2022/06/23 07:50:11;;;;;;;11.77;9.25;;;;;;;23.00;100.00;101236.13;5045356;28;20097;-80
2022/06/23 07:52:37;;;;;;;11.43;8.88;;;;;;;22.87;100.00;101234.56;5045937;28;20029;-81
2022/06/23 07:55:03;;;;;;;12.02;8.52;;;;;;;23.19;100.00;101231.88;5052045;28;20492;-81
2022/06/23 07:57:33;;;;;;;12.98;9.52;;;;;;;23.03;100.00;101234.59;5050196;28;20028;-80
2022/06/23 08:00:04;;;;;;;10.55;9.27;;;;;;;23.29;100.00;101234.13;5070055;28;20040;-79
2022/06/23 08:02:47;;;;;;;10.82;8.85;;;;;;;23.26;100.00;101232.84;5069157;28;20504;-84
2022/06/23 08:05:29;;;;;;;10.07;8.82;;;;;;;23.63;100.00;101235.41;5087246;28;20062;-81
2022/06/23 08:07:55;;;;;;;12.48;9.57;;;;;;;23.84;100.00;101235.13;5069496;28;20213;-83
2022/06/23 08:10:24;;;;;;;9.80;8.80;;;;;;;23.68;100.00;101229.50;5051983;28;20089;-82
2022/06/23 08:13:22;;;;;;;11.70;9.00;;;;;;;23.46;100.00;101222.59;5064176;28;20050;-80
2022/06/23 08:18:54;;;;;;;14.63;9.57;;;;;;;23.97;100.00;101210.63;5085707;28;20031;-78
2022/06/23 08:21:25;;;;;;;14.00;9.48;;;;;;;24.49;100.00;101200.13;5087040;28;20047;-81
2022/06/23 08:23:56;;;;;;;10.57;8.70;;;;;;;24.38;100.00;101205.53;5085140;28;20047;-82
2022/06/23 08:26:23;;;;;;;13.77;10.25;;;;;;;24.33;100.00;101210.59;5066850;28;20075;-80
2022/06/23 08:28:54;;;;;;;11.23;10.00;;;;;;;24.30;100.00;101200.13;5064569;28;20515;-82
2022/06/23 08:31:20;;;;;;;11.20;9.02;;;;;;;24.93;100.00;101202.63;5066913;28;20032;-83
2022/06/23 08:33:46;;;;;;;12.60;10.13;;;;;;;24.77;100.00;101211.13;5064720;28;20164;-81
2022/06/23 08:36:15;;;;;;;12.02;9.98;;;;;;;24.34;100.00;101203.81;5085374;28;20120;-82
2022/06/23 08:39:00;;;;;;;12.35;10.48;;;;;;;24.54;100.00;101199.03;5085189;28;20412;-82
2022/06/23 08:41:44;;;;;;;13.50;9.32;;;;;;;24.21;100.00;101195.53;5066867;28;20467;-81
2022/06/23 08:44:39;;;;;;;13.95;9.25;;;;;;;24.98;100.00;101192.28;5079337;28;20032;-82
2022/06/23 08:47:42;;;;;;;11.60;7.95;;;;;;;25.61;100.00;101194.59;5086840;28;20021;-82
2022/06/23 08:50:16;;;;;;;10.10;8.43;;;;;;;26.14;100.00;101195.78;5085726;28;20024;-82
2022/06/23 08:52:43;;;;;;;10.25;9.07;;;;;;;26.16;100.00;101184.97;5066045;28;20097;-83
2022/06/23 08:55:21;;;;;;;15.15;10.07;;;;;;;25.99;100.00;101181.56;5085153;28;20040;-85
2022/06/23 08:58:23;;;;;;;13.02;10.15;;;;;;;26.12;100.00;101182.13;5081978;28;20043;-82
2022/06/23 09:00:55;;;;;;;15.48;9.65;;;;;;;25.65;100.00;101189.84;5068752;28;20032;-79
2022/06/23 09:03:58;;;;;;;14.15;10.20;;;;;;;25.79;100.00;101183.66;5065097;28;20016;-80
2022/06/23 09:06:34;;;;;;;15.50;8.70;;;;;;;26.16;100.00;101173.75;5067214;28;20027;-81
2022/06/23 09:09:21;;;;;;;10.32;8.88;;;;;;;26.38;100.00;101175.63;5066293;28;20481;-82
2022/06/23 09:12:02;;;;;;;14.75;10.20;;;;;;;26.38;100.00;101169.19;5067909;28;20051;-83
2022/06/23 09:14:43;;;;;;;13.10;8.80;;;;;;;26.72;100.00;101163.59;5064096;28;20020;-82
2022/06/23 09:17:31;;;;;;;11.50;8.55;;;;;;;26.50;100.00;101160.50;5066716;28;20031;-86
2022/06/23 09:20:31;;;;;;;14.40;9.98;;;;;;;26.57;100.00;101166.19;5072573;28;20346;-85
2022/06/23 09:23:22;;;;;;;11.75;8.70;;;;;;;26.86;100.00;101162.91;5066342;28;20550;-81
2022/06/23 09:26:19;;;;;;;10.43;9.32;;;;;;;28.01;100.00;101166.66;5068521;28;20062;-82
2022/06/23 09:28:57;;;;;;;11.43;9.20;;;;;;;28.20;100.00;101166.38;5082943;28;20036;-86
2022/06/23 09:32:27;;;;;;;15.25;9.20;;;;;;;28.84;100.00;101161.31;5067610;28;20032;-81
2022/06/23 09:35:16;;;;;;;10.80;9.70;;;;;;;27.83;100.00;101164.53;4933593;28;20043;-82
2022/06/23 09:38:09;;;;;;;10.68;9.15;;;;;;;27.50;100.00;101162.72;5061075;28;20312;-81
2022/06/23 09:40:57;;;;;;;10.50;8.63;;;;;;;28.48;100.00;101153.53;5063624;28;20389;-81
2022/06/23 09:43:22;;;;;;;11.38;7.88;;;;;;;28.37;100.00;101155.56;5061010;28;20252;-82
2022/06/23 09:46:06;;;;;;;14.32;9.35;;;;;;;28.12;100.00;101152.63;5065234;28;20038;-79
2022/06/23 09:49:02;;;;;;;18.17;9.80;;;;;;;28.08;100.00;101154.63;5064309;28;20028;-81
2022/06/23 09:51:54;;;;;;;13.70;9.77;;;;;;;28.58;100.00;101147.19;5084513;28;20064;-79
2022/06/23 09:54:40;;;;;;;11.70;9.93;;;;;;;28.29;100.00;101148.28;5080761;28;20036;-80
2022/06/23 09:57:35;;;;;;;11.70;8.20;;;;;;;29.45;100.00;101148.06;5068190;28;20044;-83
2022/06/23 10:00:03;;;;;;;13.48;9.50;;;;;;;29.49;100.00;101145.25;5086776;28;20035;-79
2022/06/23 10:02:54;;;;;;;11.23;9.32;;;;;;;28.80;100.00;101140.78;5067330;28;20342;-81
2022/06/23 10:05:19;;;;;;;13.05;9.15;;;;;;;29.20;100.00;101150.91;5083836;28;20028;-82
2022/06/23 10:08:05;;;;;;;13.95;11.57;;;;;;;28.41;100.00;101145.06;5083636;28;20451;-81
2022/06/23 10:11:29;;;;;;;14.88;10.05;;;;;;;28.98;100.00;101144.41;5065310;28;20610;-78
2022/06/23 10:14:28;;;;;;;15.05;9.65;;;;;;;29.63;100.00;101153.69;5032462;28;20035;-83
2022/06/23 10:17:03;;;;;;;14.77;11.63;;;;;;;29.36;100.00;101144.84;5066466;28;20133;-79
2022/06/23 10:19:35;;;;;;;15.40;11.80;;;;;;;29.19;100.00;101148.47;5083558;28;20055;-82
2022/06/23 10:22:20;;;;;;;13.40;9.45;;;;;;;30.00;100.00;101138.25;5066678;28;20032;-79
2022/06/23 10:24:45;;;;;;;11.13;9.10;;;;;;;29.90;100.00;101141.94;5066401;28;20028;-82
2022/06/23 10:27:51;;;;;;;14.13;9.68;;;;;;;30.26;100.00;101138.97;5066526;28;20047;-81
2022/06/23 10:30:42;;;;;;;18.23;10.65;;;;;;;30.37;100.00;101139.75;5065151;28;20478;-80
2022/06/23 10:33:33;;;;;;;20.58;10.27;;;;;;;30.54;100.00;101131.59;5062919;28;21014;-80
2022/06/23 10:36:34;;;;;;;16.30;8.82;;;;;;;31.18;98.17;101127.50;5084915;28;20036;-81
2022/06/23 10:39:20;;;;;;;11.98;8.73;;;;;;;30.99;99.72;101122.38;5084571;28;20028;-79
2022/06/23 10:42:04;;;;;;;17.05;7.85;;;;;;;31.07;99.18;101118.28;5068260;28;20049;-81
2022/06/23 10:44:59;;;;;;;14.00;8.68;;;;;;;31.25;96.72;101109.63;5081021;28;20475;-83
2022/06/23 10:48:26;;;;;;;18.60;9.25;;;;;;;30.89;99.61;101116.34;5065147;28;20055;-81
2022/06/23 10:51:06;;;;;;;13.43;8.27;;;;;;;30.81;100.00;101111.19;5028732;28;20071;-78
2022/06/23 10:53:53;;;;;;;11.90;7.72;;;;;;;31.06;98.60;101094.03;5081333;28;20514;-81
2022/06/23 10:56:30;;;;;;;12.82;8.25;;;;;;;31.24;99.01;101091.00;5066419;28;20443;-82
2022/06/23 10:59:30;;;;;;;11.43;7.75;;;;;;;30.90;100.00;101083.22;5084319;28;20060;-83
2022/06/23 11:02:33;;;;;;;12.27;6.93;;;;;;;31.61;99.62;101086.63;5086239;28;20556;-84
2022/06/23 11:05:08;;;;;;;;;;;;;;;31.90;97.34;101067.25;5090744;28;20035;-83
2022/06/23 11:07:36;;;;;;;10.95;6.47;;;;;;;32.00;96.95;101082.50;5090438;28;20208;-80
2022/06/23 11:10:17;;;;;;;11.18;5.93;;;;;;;32.39;96.38;101076.31;5072582;28;20082;-81
2022/06/23 11:13:30;;;;;;;10.65;5.43;;;;;;;32.69;94.66;101080.34;5068215;28;20046;-81
2022/06/23 11:16:20;;;;;;;;;;;;;;;32.38;95.67;101073.91;5064465;28;20036;-81
2022/06/23 11:19:06;;;;;;;10.45;5.45;;;;;;;31.94;96.16;101078.53;5068954;28;19966;-78
2022/06/23 11:21:52;;;;;;;8.88;5.32;;;;;;;32.79;94.15;101073.69;5068508;28;20047;-82
2022/06/23 11:24:34;;;;;;;10.13;6.70;;;;;;;32.03;95.85;101079.63;5067952;28;20024;-83
2022/06/23 11:27:06;;;;;;;12.60;6.35;;;;;;;32.65;97.88;101081.63;5089597;28;20031;-81
2022/06/23 11:29:39;;;;;;;9.43;6.10;;;;;;;33.22;92.29;101075.00;5084025;28;20020;-80
2022/06/23 11:32:05;;;;;;;11.88;6.35;;;;;;;32.92;94.67;101078.75;5089013;28;20055;-80
2022/06/23 11:34:46;;;;;;;9.95;5.75;;;;;;;33.14;93.22;101070.66;5068438;28;20065;-81
2022/06/23 11:37:30;;;;;;;14.80;7.03;;;;;;;32.10;97.03;101081.59;5061490;28;20327;-81
2022/06/23 11:40:31;;;;;;;11.77;6.95;;;;;;;31.81;96.66;101081.94;5088328;28;20093;-79
2022/06/23 11:43:18;;;;;;;10.13;6.30;;;;;;;31.69;97.73;101071.13;5065465;28;20437;-79
2022/06/23 11:46:02;;;;;;;10.90;6.63;;;;;;;31.17;98.78;101077.72;5069012;28;20498;-78
2022/06/23 11:48:45;;;;;;;10.40;6.80;;;;;;;31.65;99.16;101078.91;5086510;28;20123;-79
2022/06/23 11:51:24;;;;;;;10.07;5.97;;;;;;;32.66;96.41;101064.16;5088860;28;20114;-78
2022/06/23 11:54:11;;;;;;;13.07;6.72;;;;;;;32.82;94.90;101062.72;5086514;28;20040;-80
2022/06/23 11:57:12;;;;;;;12.25;7.22;;;;;;;33.40;90.73;101051.13;5067255;28;20127;-79
2022/06/23 12:00:05;;;;;;;9.07;5.53;;;;;;;34.16;90.47;101048.34;5063866;28;20028;-81
2022/06/23 12:02:37;;;;;;;;;;;;;;;32.87;93.02;101054.50;5066166;28;20020;-81
2022/06/23 12:05:19;;;;;;;9.70;6.10;;;;;;;32.37;95.12;101047.56;5067769;28;19959;-80
2022/06/23 12:08:07;;;;;;;14.07;5.60;;;;;;;32.30;92.62;101049.72;5065864;28;20088;-80
2022/06/23 12:10:35;;;;;;;10.98;5.70;;;;;;;33.52;92.38;101053.34;5066490;28;20027;-79
2022/06/23 12:13:03;;;;;;;13.73;5.55;;;;;;;32.91;91.46;101045.91;5082488;28;20136;-79
2022/06/23 12:15:33;;;;;;;10.93;6.15;;;;;;;31.85;94.47;101048.66;5084603;28;20024;-79
2022/06/23 12:18:04;;;;;;;11.70;6.18;;;;;;;32.81;92.47;101046.91;5066126;28;20031;-80